Time;durP1;ratioP1;P1;durP2;ratioP2;P2;SDS_P1;SDS_P2;PMS_P1;PMS_P2;Temp;Humidity;BMP_temperature;BMP_pressure;BME280_temperature;BME280_humidity;BME280_pressure;Samples;Min_cycle;Max_cycle;Signal;HPM_P1;HPM_P2
2023/12/20 00:01:49;;;;;;;5.37;1.40;;;;;;;18.91;43.98;101556.72;5066074;28;20033;-64
2023/12/20 00:04:14;;;;;;;3.45;1.40;;;;;;;18.91;43.91;101547.97;5066244;28;20285;-64
2023/12/20 00:06:39;;;;;;;5.70;1.63;;;;;;;18.89;43.72;101556.00;5065882;28;20025;-63
2023/12/20 00:09:05;;;;;;;4.23;1.37;;;;;;;18.81;43.81;101555.69;5065872;28;20064;-64
2023/12/20 00:11:30;;;;;;;5.28;1.45;;;;;;;18.79;43.47;101554.97;5065647;28;20753;-64
2023/12/20 00:13:55;;;;;;;4.35;1.25;;;;;;;18.80;43.69;101554.00;5066242;28;20036;-64
2023/12/20 00:16:21;;;;;;;3.67;1.20;;;;;;;18.75;43.57;101549.06;5066710;28;20032;-64
2023/12/20 00:18:46;;;;;;;4.15;1.23;;;;;;;18.82;43.61;101560.03;5065626;28;20033;-64
2023/12/20 00:21:11;;;;;;;3.38;1.50;;;;;;;18.76;43.42;101560.47;5065900;28;20480;-64
2023/12/20 00:23:37;;;;;;;3.05;0.98;;;;;;;18.78;43.34;101564.69;5066320;28;20025;-63
2023/12/20 00:26:02;;;;;;;4.43;1.50;;;;;;;18.72;43.45;101556.38;5065794;28;20032;-63
2023/12/20 00:28:28;;;;;;;4.40;1.33;;;;;;;18.76;43.38;101565.75;5065276;28;20374;-63
2023/12/20 00:30:53;;;;;;;3.67;1.20;;;;;;;18.77;43.38;101562.16;5065906;28;20074;-63
2023/12/20 00:33:19;;;;;;;4.00;1.20;;;;;;;18.64;43.34;101543.72;5065488;28;20050;-64
2023/12/20 00:35:44;;;;;;;4.75;1.55;;;;;;;18.65;43.20;101546.25;5065211;28;20487;-66
2023/12/20 00:38:09;;;;;;;5.43;1.40;;;;;;;18.71;43.12;101555.53;5065604;28;20044;-63
2023/12/20 00:40:35;;;;;;;3.95;1.20;;;;;;;18.59;43.20;101536.13;5046318;28;20127;-65
2023/12/20 00:43:00;;;;;;;3.95;1.27;;;;;;;18.60;43.13;101537.00;5065259;28;20033;-65
2023/12/20 00:45:26;;;;;;;3.92;1.52;;;;;;;18.66;43.23;101547.94;5065390;28;20036;-65
2023/12/20 00:47:51;;;;;;;4.30;1.45;;;;;;;18.63;43.07;101542.06;5065485;28;20508;-63
2023/12/20 00:50:16;;;;;;;3.58;1.20;;;;;;;18.64;43.20;101536.66;5066052;28;20028;-65
2023/12/20 00:52:42;;;;;;;5.05;1.35;;;;;;;18.63;43.01;101540.25;5066199;28;20021;-64
2023/12/20 00:55:07;;;;;;;5.20;1.03;;;;;;;18.63;42.96;101550.81;5066134;28;20117;-65
2023/12/20 00:57:33;;;;;;;3.50;1.25;;;;;;;18.56;42.87;101532.88;5065934;28;20272;-63
2023/12/20 00:59:58;;;;;;;4.90;1.40;;;;;;;18.63;42.91;101539.41;5065570;28;21328;-64
2023/12/20 01:02:23;;;;;;;4.28;1.15;;;;;;;18.56;42.85;101530.22;5065506;28;20102;-66
2023/12/20 01:04:48;;;;;;;3.17;1.20;;;;;;;18.51;42.70;101524.44;5068987;28;20043;-63
2023/12/20 01:07:14;;;;;;;4.60;1.30;;;;;;;18.49;42.88;101528.03;5069547;28;20289;-65
2023/12/20 01:09:39;;;;;;;4.75;1.50;;;;;;;18.49;42.56;101533.31;5020728;28;20507;-65
2023/12/20 01:12:05;;;;;;;6.13;1.30;;;;;;;18.57;42.72;101537.22;5069355;28;20679;-64
2023/12/20 01:14:30;;;;;;;4.40;1.17;;;;;;;18.56;42.51;101540.78;5068914;28;20032;-63
2023/12/20 01:16:55;;;;;;;4.43;1.30;;;;;;;18.56;42.67;101546.91;5067491;28;20079;-64
2023/12/20 01:19:21;;;;;;;4.45;1.23;;;;;;;18.53;42.58;101559.50;5067615;28;20265;-64
2023/12/20 01:21:47;;;;;;;4.18;1.20;;;;;;;18.54;42.86;101556.75;5068589;28;20098;-64
2023/12/20 01:24:12;;;;;;;6.45;1.58;;;;;;;18.43;42.72;101538.19;5069202;28;20115;-64
2023/12/20 01:26:37;;;;;;;4.22;1.30;;;;;;;18.42;42.50;101547.06;5069257;28;20082;-64
2023/12/20 01:29:02;;;;;;;4.83;1.40;;;;;;;18.43;42.30;101549.59;5068495;28;20068;-63
2023/12/20 01:31:28;;;;;;;5.28;1.27;;;;;;;18.40;42.62;101544.53;5068611;28;20729;-64
2023/12/20 01:33:53;;;;;;;5.13;1.40;;;;;;;18.40;42.35;101544.53;5068386;28;20044;-64
2023/12/20 01:36:19;;;;;;;4.65;1.40;;;;;;;18.48;42.65;101570.38;5067850;28;20032;-64
2023/12/20 01:38:44;;;;;;;3.40;1.00;;;;;;;18.47;42.40;101558.16;5068770;28;20263;-64
2023/12/20 01:41:10;;;;;;;4.43;1.40;;;;;;;18.45;42.36;101563.53;5068178;28;20584;-64
2023/12/20 01:43:36;;;;;;;4.40;1.20;;;;;;;18.29;42.34;101533.88;5050677;28;20374;-64
2023/12/20 01:46:03;;;;;;;3.92;1.20;;;;;;;18.45;42.38;101557.41;5068635;28;20072;-64
2023/12/20 01:48:29;;;;;;;3.63;1.10;;;;;;;18.41;42.55;101554.13;5066449;28;20497;-65
2023/12/20 01:50:55;;;;;;;2.90;0.90;;;;;;;18.34;42.44;101542.34;5058724;28;20036;-64
2023/12/20 01:53:23;;;;;;;4.32;1.13;;;;;;;18.41;42.34;101556.78;5064616;28;20032;-63
2023/12/20 01:55:52;;;;;;;4.35;1.40;;;;;;;18.31;42.38;101538.13;5068101;28;20036;-64
2023/12/20 01:58:18;;;;;;;5.30;1.25;;;;;;;18.40;42.21;101563.00;5068397;28;20099;-63
2023/12/20 02:00:44;;;;;;;4.35;1.30;;;;;;;18.33;42.35;101553.00;5068018;28;20086;-64
2023/12/20 02:03:09;;;;;;;3.67;1.20;;;;;;;18.37;42.36;101554.47;5063522;28;20512;-64
2023/12/20 02:05:36;;;;;;;6.47;1.55;;;;;;;18.29;42.19;101540.03;5063220;28;20032;-64
2023/12/20 02:08:02;;;;;;;4.93;1.38;;;;;;;18.36;42.11;101551.00;5068138;28;20051;-63
2023/12/20 02:10:27;;;;;;;4.15;1.25;;;;;;;18.28;42.12;101534.88;5068380;28;20028;-64
2023/12/20 02:12:53;;;;;;;4.65;1.10;;;;;;;18.27;42.39;101539.28;5068261;28;20055;-65
2023/12/20 02:15:18;;;;;;;6.28;1.23;;;;;;;18.36;42.36;101560.69;5067270;28;20033;-63
2023/12/20 02:17:45;;;;;;;5.80;1.40;;;;;;;18.34;42.20;101565.22;5067976;28;20021;-64
2023/12/20 02:20:12;;;;;;;5.35;1.27;;;;;;;18.27;42.15;101551.63;5067565;28;20060;-65
2023/12/20 02:22:37;;;;;;;4.82;1.30;;;;;;;18.33;42.18;101567.03;5047754;28;20033;-64
2023/12/20 02:25:03;;;;;;;4.75;1.10;;;;;;;18.22;42.01;101549.31;5067087;28;20079;-64
2023/12/20 02:27:29;;;;;;;4.63;1.30;;;;;;;18.32;42.28;101565.34;5065927;28;20392;-64
2023/12/20 02:29:55;;;;;;;5.22;1.30;;;;;;;18.27;42.05;101552.47;5067394;28;20028;-65
2023/12/20 02:32:21;;;;;;;4.30;1.10;;;;;;;18.19;42.11;101538.97;5065567;28;20081;-64
2023/12/20 02:34:48;;;;;;;3.67;1.13;;;;;;;18.29;41.96;101553.22;5066290;28;20060;-64
2023/12/20 02:37:13;;;;;;;5.68;1.70;;;;;;;18.28;42.06;101554.16;5067598;28;20028;-64
2023/12/20 02:39:39;;;;;;;4.15;1.20;;;;;;;18.18;42.05;101537.28;5066063;28;20119;-64
2023/12/20 02:42:04;;;;;;;3.83;1.27;;;;;;;18.20;41.87;101543.31;5067551;28;20048;-64
2023/12/20 02:44:29;;;;;;;4.35;1.40;;;;;;;18.22;42.15;101549.31;5067559;28;20447;-64
2023/12/20 02:46:54;;;;;;;4.57;1.13;;;;;;;18.17;42.30;101542.69;5048459;28;20131;-64
2023/12/20 02:49:20;;;;;;;3.63;1.13;;;;;;;18.15;41.75;101544.56;5067761;28;20273;-65
2023/12/20 02:51:47;;;;;;;5.63;1.40;;;;;;;18.14;41.98;101535.84;5066576;28;20025;-64
2023/12/20 02:54:12;;;;;;;4.57;1.27;;;;;;;18.23;42.09;101552.78;5066478;28;20465;-64
2023/12/20 02:56:37;;;;;;;4.25;1.25;;;;;;;18.22;41.96;101556.41;5066597;28;20051;-64
2023/12/20 02:59:05;;;;;;;5.18;1.40;;;;;;;18.20;41.87;101553.88;5059253;28;20025;-65
2023/12/20 03:01:30;;;;;;;5.55;1.30;;;;;;;18.11;42.00;101539.50;5066434;28;20033;-64
2023/12/20 03:03:56;;;;;;;5.28;1.40;;;;;;;18.15;42.15;101544.56;5059419;28;20032;-64
2023/12/20 03:06:21;;;;;;;3.80;1.10;;;;;;;18.11;42.03;101534.25;5066620;28;20040;-65
2023/12/20 03:08:46;;;;;;;4.60;1.30;;;;;;;18.19;41.90;101546.91;5067330;28;20028;-64
2023/12/20 03:11:11;;;;;;;3.85;1.10;;;;;;;18.13;42.02;101534.13;5066316;28;20070;-65
2023/12/20 03:13:37;;;;;;;5.60;1.10;;;;;;;18.20;41.88;101550.38;5067169;28;20043;-65
2023/12/20 03:16:12;;;;;;;4.05;1.25;;;;;;;18.19;41.98;101538.16;5066820;28;20029;-65
2023/12/20 03:18:38;;;;;;;5.05;1.20;;;;;;;18.19;41.97;101543.44;5064753;28;20033;-65
2023/12/20 03:21:06;;;;;;;4.53;1.38;;;;;;;18.16;41.85;101536.56;5066635;28;20035;-64
2023/12/20 03:23:33;;;;;;;4.00;1.30;;;;;;;18.18;41.80;101539.91;5067023;28;20029;-64
2023/12/20 03:25:59;;;;;;;4.57;1.63;;;;;;;18.07;42.00;101519.59;5066406;28;20044;-65
2023/12/20 03:28:24;;;;;;;3.60;1.10;;;;;;;18.17;41.71;101540.06;5066250;28;20024;-65
2023/12/20 03:30:50;;;;;;;4.80;1.25;;;;;;;18.18;41.81;101536.44;5066584;28;20115;-66
2023/12/20 03:33:15;;;;;;;5.65;1.27;;;;;;;18.14;41.93;101535.84;5067035;28;20155;-64
2023/12/20 03:35:41;;;;;;;4.35;1.17;;;;;;;18.05;41.75;101510.94;5066490;28;20040;-65
2023/12/20 03:38:06;;;;;;;4.60;1.10;;;;;;;18.10;41.58;101521.16;5065863;28;20032;-64
2023/12/20 03:40:31;;;;;;;4.80;1.35;;;;;;;18.07;41.63;101513.47;5066196;28;20050;-64
2023/12/20 03:42:57;;;;;;;3.40;1.33;;;;;;;18.03;41.73;101502.28;5066302;28;20036;-66
2023/12/20 03:45:22;;;;;;;5.80;1.58;;;;;;;18.12;41.67;101519.28;5066555;28;20086;-65
2023/12/20 03:47:48;;;;;;;5.43;1.60;;;;;;;18.11;41.80;101523.69;5066049;28;20096;-64
2023/12/20 03:50:14;;;;;;;4.05;1.15;;;;;;;18.00;41.90;101496.41;5066463;28;20028;-65
2023/12/20 03:52:39;;;;;;;5.00;1.30;;;;;;;18.03;41.93;101504.09;5065714;28;20115;-64
2023/12/20 03:55:05;;;;;;;4.18;1.30;;;;;;;18.10;41.58;101532.56;5065327;28;20481;-65
2023/12/20 03:57:30;;;;;;;4.55;1.17;;;;;;;18.00;42.05;101510.41;5065426;28;20042;-64
2023/12/20 03:59:55;;;;;;;3.47;1.00;;;;;;;18.09;41.92;101530.88;5065611;28;20063;-64
2023/12/20 04:02:20;;;;;;;4.53;1.40;;;;;;;18.00;41.65;101517.50;5064191;28;20047;-65
2023/12/20 04:04:46;;;;;;;5.05;1.50;;;;;;;18.06;41.94;101531.09;5065178;28;20173;-64
2023/12/20 04:07:11;;;;;;;5.53;1.38;;;;;;;18.08;41.72;101530.97;5066143;28;20033;-64
2023/12/20 04:09:36;;;;;;;4.90;1.40;;;;;;;18.06;41.95;101527.63;5066027;28;20037;-64
2023/12/20 04:12:02;;;;;;;5.30;1.50;;;;;;;18.04;41.91;101522.44;5065870;28;20025;-64
2023/12/20 04:14:27;;;;;;;4.63;1.38;;;;;;;17.98;41.93;101512.31;5065567;28;20035;-64
2023/12/20 04:16:53;;;;;;;5.55;1.63;;;;;;;17.98;41.67;101520.25;5066584;28;20115;-64
2023/12/20 04:19:18;;;;;;;5.90;1.50;;;;;;;17.94;41.80;101511.72;5066258;28;20033;-64
2023/12/20 04:21:44;;;;;;;5.03;1.40;;;;;;;18.04;41.78;101527.72;5065855;28;20039;-65
2023/12/20 04:24:09;;;;;;;5.53;1.40;;;;;;;17.95;41.81;101516.00;5066146;28;20428;-64
2023/12/20 04:26:34;;;;;;;6.40;1.55;;;;;;;18.04;41.82;101521.59;5066229;28;20059;-65
2023/12/20 04:29:00;;;;;;;5.93;1.38;;;;;;;18.02;41.91;101528.78;5066140;28;20033;-64
2023/12/20 04:31:25;;;;;;;6.07;1.95;;;;;;;17.98;41.69;101520.25;5065586;28;20527;-65
2023/12/20 04:33:50;;;;;;;5.53;1.33;;;;;;;17.94;42.09;101509.06;5066233;28;20028;-64
2023/12/20 04:36:16;;;;;;;4.57;1.13;;;;;;;17.92;41.96;101513.59;5065749;28;20314;-65
2023/12/20 04:38:41;;;;;;;4.30;1.40;;;;;;;17.95;41.88;101526.56;5067812;28;20075;-65
2023/12/20 04:41:06;;;;;;;6.63;2.00;;;;;;;17.92;42.06;101512.75;5069040;28;20119;-63
2023/12/20 04:43:32;;;;;;;4.97;1.52;;;;;;;17.99;41.92;101527.22;5069585;28;20036;-66
2023/12/20 04:45:57;;;;;;;6.32;1.60;;;;;;;18.01;42.06;101533.22;5069133;28;20028;-66
2023/12/20 04:48:22;;;;;;;5.65;1.50;;;;;;;17.92;41.92;101510.94;5069324;28;20051;-66
2023/12/20 04:50:48;;;;;;;4.40;1.27;;;;;;;17.92;42.00;101525.94;5068434;28;20503;-65
2023/12/20 04:53:13;;;;;;;5.55;1.52;;;;;;;18.00;42.08;101535.97;5068889;28;20036;-65
2023/12/20 04:55:39;;;;;;;7.00;1.60;;;;;;;17.98;41.93;101532.59;5068582;28;20090;-65
2023/12/20 04:58:04;;;;;;;5.72;1.70;;;;;;;17.97;41.83;101533.53;5069013;28;20273;-65
2023/12/20 05:00:30;;;;;;;3.35;1.00;;;;;;;17.95;42.09;101528.38;5068460;28;20035;-65
2023/12/20 05:02:55;;;;;;;5.32;1.48;;;;;;;17.82;42.14;101501.97;5067191;28;20044;-65
2023/12/20 05:05:20;;;;;;;3.95;1.27;;;;;;;17.97;42.09;101520.34;5068781;28;20028;-64
2023/12/20 05:07:46;;;;;;;3.78;1.20;;;;;;;17.97;42.06;101515.06;5068595;28;20041;-63
2023/12/20 05:10:11;;;;;;;5.75;1.58;;;;;;;17.87;41.75;101502.50;5069368;28;20032;-64
2023/12/20 05:12:36;;;;;;;7.07;1.73;;;;;;;17.93;41.95;101519.72;5069362;28;20106;-63
2023/12/20 05:15:02;;;;;;;6.10;1.42;;;;;;;17.96;41.97;101519.50;5069324;28;20530;-63
2023/12/20 05:17:27;;;;;;;4.47;1.30;;;;;;;17.95;41.75;101508.09;5068810;28;20032;-64
2023/12/20 05:19:52;;;;;;;5.23;1.53;;;;;;;17.85;42.07;101487.72;5069565;28;20472;-64
2023/12/20 05:22:19;;;;;;;4.70;1.15;;;;;;;17.82;41.90;101487.97;5068598;28;20344;-64
2023/12/20 05:24:45;;;;;;;5.28;1.30;;;;;;;17.92;41.88;101505.69;5068215;28;20035;-63
2023/12/20 05:27:11;;;;;;;5.22;1.65;;;;;;;17.92;41.88;101510.94;5050224;28;20025;-65
2023/12/20 05:29:36;;;;;;;4.57;1.38;;;;;;;17.94;41.74;101514.34;5067920;28;20492;-65
2023/12/20 05:32:03;;;;;;;5.20;1.50;;;;;;;17.93;42.01;101512.66;5067469;28;20055;-64
2023/12/20 05:34:28;;;;;;;5.80;1.60;;;;;;;17.83;41.90;101508.09;5067649;28;20456;-64
2023/12/20 05:36:54;;;;;;;5.80;1.77;;;;;;;17.92;42.09;101518.03;5068305;28;20128;-64
2023/12/20 05:39:19;;;;;;;4.68;1.40;;;;;;;17.83;41.81;101500.16;5069096;28;20315;-63
2023/12/20 05:41:44;;;;;;;4.90;1.40;;;;;;;17.89;41.93;101505.06;5068356;28;20043;-64
2023/12/20 05:44:10;;;;;;;4.78;1.30;;;;;;;17.91;41.83;101509.28;5068685;28;20564;-65
2023/12/20 05:46:36;;;;;;;7.93;1.38;;;;;;;17.80;41.99;101492.47;5067316;28;20132;-64
2023/12/20 05:49:02;;;;;;;6.05;1.83;;;;;;;17.82;42.13;101506.41;5066418;28;20120;-64
2023/12/20 05:51:28;;;;;;;5.22;1.60;;;;;;;17.89;41.90;101516.44;5066920;28;20143;-64
2023/12/20 05:53:53;;;;;;;6.65;1.80;;;;;;;17.89;41.96;101523.50;5068549;28;20120;-63
2023/12/20 05:56:19;;;;;;;4.82;1.77;;;;;;;17.88;41.87;101527.09;5068562;28;20039;-65
2023/12/20 05:58:44;;;;;;;4.20;1.30;;;;;;;17.83;41.91;101513.34;5068043;28;20045;-66
2023/12/20 06:01:09;;;;;;;5.93;1.45;;;;;;;17.89;41.79;101529.63;5068362;28;20039;-65
2023/12/20 06:03:34;;;;;;;3.63;1.10;;;;;;;17.92;42.37;101534.69;5067034;28;20040;-64
2023/12/20 06:06:06;;;;;;;5.78;1.50;;;;;;;17.94;42.34;101542.50;5067560;28;20269;-66
2023/12/20 06:08:32;;;;;;;5.97;1.70;;;;;;;17.96;42.20;101543.25;5066598;28;20131;-63
2023/12/20 06:10:57;;;;;;;5.72;1.50;;;;;;;17.89;42.32;101526.97;5067479;28;20120;-64
2023/12/20 06:13:22;;;;;;;4.85;1.50;;;;;;;18.03;42.72;101544.50;5067817;28;20048;-63
2023/12/20 06:15:48;;;;;;;4.35;1.30;;;;;;;17.97;42.50;101525.63;5067281;28;20033;-63
2023/12/20 06:18:13;;;;;;;3.70;1.30;;;;;;;18.00;42.57;101528.88;5066837;28;20079;-64
2023/12/20 06:20:38;;;;;;;4.10;1.15;;;;;;;18.00;42.57;101514.84;5067513;28;20036;-63
2023/12/20 06:23:03;;;;;;;4.18;1.38;;;;;;;18.04;42.63;101513.66;5068002;28;20111;-63
2023/12/20 06:25:29;;;;;;;6.35;1.20;;;;;;;18.13;42.48;101526.22;5067686;28;20024;-64
2023/12/20 06:27:54;;;;;;;4.55;1.38;;;;;;;18.12;42.42;101519.28;5067819;28;20393;-63
2023/12/20 06:30:19;;;;;;;4.88;1.20;;;;;;;18.25;42.40;101545.63;5067697;28;20068;-63
2023/12/20 06:32:46;;;;;;;5.57;1.25;;;;;;;18.23;42.59;101529.03;5067707;28;20038;-63
2023/12/20 06:35:12;;;;;;;4.75;1.23;;;;;;;18.28;42.14;101525.16;5067302;28;20031;-64
2023/12/20 06:37:37;;;;;;;3.72;1.20;;;;;;;18.26;42.39;101516.50;5067691;28;20028;-64
2023/12/20 06:40:02;;;;;;;4.10;1.10;;;;;;;18.26;42.47;101510.38;5067713;28;20028;-65
2023/12/20 06:42:28;;;;;;;3.65;1.17;;;;;;;18.31;42.17;101516.19;5067639;28;20741;-65
2023/12/20 06:44:53;;;;;;;5.32;1.40;;;;;;;18.37;42.32;101533.34;5067342;28;20061;-63
2023/12/20 06:47:18;;;;;;;4.50;1.40;;;;;;;18.38;42.42;101520.03;5067211;28;20056;-64
2023/12/20 06:49:44;;;;;;;4.90;1.20;;;;;;;18.31;42.40;101510.91;5067297;28;20864;-64
2023/12/20 06:52:10;;;;;;;4.75;1.30;;;;;;;18.40;42.16;101528.69;5066411;28;20055;-64
2023/12/20 06:54:35;;;;;;;5.32;1.40;;;;;;;18.42;42.18;101526.81;5067247;28;20109;-64
2023/12/20 06:57:02;;;;;;;4.38;1.25;;;;;;;18.43;42.17;101522.34;5067157;28;20702;-64
2023/12/20 06:59:28;;;;;;;4.88;1.35;;;;;;;18.41;42.18;101521.63;5067288;28;20056;-63
2023/12/20 07:01:53;;;;;;;3.88;1.40;;;;;;;18.41;42.00;101519.81;5065627;28;20063;-63
2023/12/20 07:04:21;;;;;;;5.43;1.45;;;;;;;18.36;42.43;101513.19;5066174;28;20469;-63
2023/12/20 07:06:47;;;;;;;2.45;1.00;;;;;;;18.45;42.29;101528.34;5066689;28;20518;-64
2023/12/20 07:09:13;;;;;;;3.95;1.20;;;;;;;18.45;42.37;101526.59;5066297;28;20135;-64
2023/12/20 07:11:38;;;;;;;4.57;1.20;;;;;;;18.45;42.11;101523.09;5066191;28;20162;-64
2023/12/20 07:14:04;;;;;;;3.90;1.20;;;;;;;18.46;42.04;101524.78;5066061;28;20111;-64
2023/12/20 07:16:29;;;;;;;4.55;1.40;;;;;;;18.47;42.13;101526.47;5065950;28;20106;-63
2023/12/20 07:18:54;;;;;;;4.97;1.38;;;;;;;18.44;42.08;101518.78;5066266;28;20229;-63
2023/12/20 07:21:20;;;;;;;4.13;1.27;;;;;;;18.36;42.17;101516.69;5065549;28;20052;-64
2023/12/20 07:23:45;;;;;;;5.20;1.40;;;;;;;18.45;41.98;101517.81;5066860;28;20044;-64
2023/12/20 07:26:11;;;;;;;4.33;1.33;;;;;;;18.44;41.94;101524.88;5066577;28;20261;-63
2023/12/20 07:28:36;;;;;;;6.07;1.50;;;;;;;18.44;42.03;101527.53;5066069;28;20281;-63
2023/12/20 07:31:02;;;;;;;4.30;1.30;;;;;;;18.38;41.81;101521.84;5066647;28;20445;-65
2023/12/20 07:33:27;;;;;;;5.38;1.20;;;;;;;18.44;41.73;101534.63;5066399;28;20117;-63
2023/12/20 07:35:52;;;;;;;5.77;1.43;;;;;;;18.45;41.67;101525.72;5066787;28;20790;-64
2023/12/20 07:38:18;;;;;;;5.18;1.50;;;;;;;18.42;41.69;101523.31;5047539;28;20272;-63
2023/12/20 07:40:43;;;;;;;5.95;1.80;;;;;;;18.44;41.90;101524.06;5064534;28;20032;-64
2023/12/20 07:43:08;;;;;;;4.82;1.48;;;;;;;18.37;41.56;101518.34;5063078;28;20025;-65
2023/12/20 07:45:34;;;;;;;5.50;1.50;;;;;;;18.41;41.56;101525.09;5064311;28;20385;-65
2023/12/20 07:48:00;;;;;;;4.90;1.33;;;;;;;18.42;41.54;101521.53;5065348;28;20055;-66
2023/12/20 07:50:26;;;;;;;6.20;1.58;;;;;;;18.42;41.55;101516.25;5065926;28;20928;-65
2023/12/20 07:52:51;;;;;;;4.78;1.30;;;;;;;18.36;41.72;101503.50;5065296;28;20366;-63
2023/12/20 07:55:16;;;;;;;4.18;1.38;;;;;;;18.34;41.53;101507.19;5066382;28;20191;-63
2023/12/20 07:57:42;;;;;;;3.72;1.27;;;;;;;18.43;41.71;101522.34;5066420;28;20369;-63
2023/12/20 08:00:07;;;;;;;4.85;1.40;;;;;;;18.37;41.65;101520.16;5066200;28;20131;-63
2023/12/20 08:02:33;;;;;;;4.03;1.20;;;;;;;18.44;41.90;101524.06;5047083;28;20404;-63
2023/12/20 08:04:58;;;;;;;4.72;1.30;;;;;;;18.43;41.82;101528.47;5065553;28;20647;-64
2023/12/20 08:07:24;;;;;;;5.25;1.60;;;;;;;18.43;41.60;101533.75;5065838;28;20032;-63
2023/12/20 08:09:49;;;;;;;7.15;1.63;;;;;;;18.33;41.60;101519.53;5066195;28;20059;-63
2023/12/20 08:12:16;;;;;;;5.25;1.35;;;;;;;18.37;41.66;101520.16;5065009;28;20449;-63
2023/12/20 08:14:42;;;;;;;5.15;1.30;;;;;;;18.43;42.01;101536.38;5065554;28;20036;-64
2023/12/20 08:17:07;;;;;;;5.68;1.75;;;;;;;18.43;42.15;101525.00;5048311;28;20032;-65
2023/12/20 08:19:32;;;;;;;6.32;1.50;;;;;;;18.47;42.05;101537.88;5048078;28;20037;-64
2023/12/20 08:21:57;;;;;;;5.57;1.63;;;;;;;18.47;42.06;101534.41;5065523;28;20028;-63
2023/12/20 08:24:23;;;;;;;4.53;1.40;;;;;;;18.48;42.34;101538.69;5066180;28;20033;-62
2023/12/20 08:26:48;;;;;;;5.90;1.60;;;;;;;18.39;42.26;101524.38;5066252;28;20029;-65
2023/12/20 08:29:14;;;;;;;5.80;1.90;;;;;;;18.40;42.32;101527.84;5065969;28;20465;-64
2023/12/20 08:31:39;;;;;;;5.47;1.52;;;;;;;18.47;42.43;101544.94;5066176;28;20036;-64
2023/12/20 08:34:04;;;;;;;6.15;1.70;;;;;;;18.49;42.54;101551.78;5065779;28;20115;-64
2023/12/20 08:36:30;;;;;;;6.45;1.45;;;;;;;18.49;42.49;101543.88;5065371;28;20032;-66
2023/12/20 08:38:55;;;;;;;7.00;1.65;;;;;;;18.51;42.75;101551.69;5064928;28;20102;-64
2023/12/20 08:41:21;;;;;;;5.65;1.73;;;;;;;18.52;42.55;101561.28;5064850;28;20044;-64
2023/12/20 08:43:46;;;;;;;5.72;1.50;;;;;;;18.51;43.03;101545.56;5064911;28;20032;-64
2023/12/20 08:46:12;;;;;;;5.05;1.30;;;;;;;18.41;42.85;101519.81;5064778;28;20473;-64
2023/12/20 08:48:37;;;;;;;5.60;1.42;;;;;;;18.56;43.06;101535.50;5046080;28;20067;-63
2023/12/20 08:51:04;;;;;;;4.20;1.35;;;;;;;18.56;43.09;101524.94;5065200;28;20043;-65
2023/12/20 08:53:29;;;;;;;4.57;1.30;;;;;;;18.47;43.29;101508.84;5047059;28;20025;-65
2023/12/20 08:55:54;;;;;;;5.20;1.40;;;;;;;18.55;43.28;101510.06;5065276;28;20116;-63
2023/12/20 08:58:20;;;;;;;5.90;1.60;;;;;;;18.48;43.65;101505.25;5064025;28;20056;-65
2023/12/20 09:00:46;;;;;;;7.13;1.58;;;;;;;18.49;43.46;101504.28;5064237;28;20048;-63
2023/12/20 09:03:11;;;;;;;5.82;1.63;;;;;;;18.56;43.29;101517.88;5064446;28;20120;-64
2023/12/20 09:05:36;;;;;;;5.85;1.73;;;;;;;18.56;43.67;101509.13;5064903;28;20383;-63
2023/12/20 09:08:02;;;;;;;7.38;1.88;;;;;;;18.50;43.45;101505.16;5064636;28;20078;-65
2023/12/20 09:10:27;;;;;;;5.70;1.73;;;;;;;18.60;43.26;101526.44;5065319;28;20024;-63
2023/12/20 09:12:57;;;;;;;5.65;1.52;;;;;;;18.60;43.30;101527.25;5065720;28;20115;-64
2023/12/20 09:15:26;;;;;;;5.10;1.42;;;;;;;18.61;43.67;101528.97;5065428;28;20028;-64
2023/12/20 09:17:52;;;;;;;6.47;1.58;;;;;;;18.62;43.53;101532.44;5063642;28;20052;-64
2023/12/20 09:20:18;;;;;;;6.03;1.70;;;;;;;18.58;43.74;101523.03;5065377;28;20032;-64
2023/12/20 09:22:43;;;;;;;6.15;1.80;;;;;;;18.51;43.63;101506.81;5065597;28;20078;-66
2023/12/20 09:25:10;;;;;;;5.57;1.58;;;;;;;18.62;43.53;101527.97;5064547;28;20033;-67
2023/12/20 09:27:37;;;;;;;5.57;1.50;;;;;;;18.61;43.38;101520.19;5064379;28;20047;-67
2023/12/20 09:30:04;;;;;;;6.13;1.67;;;;;;;18.56;43.22;101511.75;5067699;28;20075;-66
2023/12/20 09:32:29;;;;;;;5.57;1.65;;;;;;;18.66;43.57;101528.63;5067063;28;20535;-69
2023/12/20 09:34:55;;;;;;;5.78;1.40;;;;;;;18.57;43.39;101509.00;5067051;28;20033;-69
2023/12/20 09:37:20;;;;;;;7.50;1.50;;;;;;;18.66;43.15;101515.44;5067492;28;20599;-70
2023/12/20 09:39:45;;;;;;;9.70;1.95;;;;;;;18.63;43.35;101515.66;5067554;28;20048;-70
2023/12/20 09:42:12;;;;;;;7.25;1.80;;;;;;;18.66;43.29;101513.63;5067314;28;20028;-67
2023/12/20 09:44:40;;;;;;;5.28;1.70;;;;;;;18.61;43.09;101507.84;5067052;28;20036;-68
2023/12/20 09:47:06;;;;;;;6.38;1.90;;;;;;;18.61;43.18;101517.53;5066914;28;20136;-71
2023/12/20 09:49:32;;;;;;;7.47;1.98;;;;;;;18.70;42.98;101524.78;5065790;28;20043;-68
2023/12/20 09:52:00;;;;;;;7.00;1.80;;;;;;;18.60;42.97;101514.06;5065485;28;20109;-69
2023/12/20 09:54:28;;;;;;;8.32;1.70;;;;;;;18.62;43.23;101500.75;5067023;28;20050;-65
2023/12/20 09:56:53;;;;;;;5.13;1.40;;;;;;;18.61;43.22;101499.91;5065378;28;20051;-66
2023/12/20 09:59:19;;;;;;;6.97;1.73;;;;;;;18.72;43.09;101512.31;5066673;28;20032;-63
2023/12/20 10:01:44;;;;;;;5.25;1.33;;;;;;;18.71;43.20;101517.69;5064827;28;20039;-67
2023/12/20 10:04:12;;;;;;;4.18;1.33;;;;;;;18.71;43.12;101515.94;5064880;28;20059;-64
2023/12/20 10:06:42;;;;;;;5.40;1.70;;;;;;;18.65;42.93;101508.44;5067792;28;20059;-66
2023/12/20 10:09:09;;;;;;;6.18;1.58;;;;;;;18.73;42.81;101519.28;5067484;28;20082;-67
2023/12/20 10:11:38;;;;;;;5.40;1.73;;;;;;;18.75;42.83;101516.53;5068083;28;20029;-67
2023/12/20 10:14:05;;;;;;;5.97;2.05;;;;;;;18.72;42.81;101522.03;5067750;28;20115;-65
2023/12/20 10:16:32;;;;;;;5.28;1.58;;;;;;;18.62;42.25;101496.31;5068078;28;20034;-66
2023/12/20 10:18:58;;;;;;;6.57;1.70;;;;;;;18.71;42.72;101509.78;5067695;28;20037;-67
2023/12/20 10:21:26;;;;;;;5.88;1.70;;;;;;;18.71;42.68;101496.59;5067847;28;20036;-65
2023/12/20 10:23:51;;;;;;;6.72;1.60;;;;;;;18.72;42.47;101503.56;5066960;28;20085;-69
2023/12/20 10:26:21;;;;;;;5.85;1.48;;;;;;;18.72;42.57;101511.47;5066117;28;20395;-68
2023/12/20 10:28:46;;;;;;;5.28;1.80;;;;;;;18.60;42.70;101498.22;5067213;28;20038;-67
2023/12/20 10:31:34;;;;;;;6.40;1.80;;;;;;;18.67;42.39;101488.91;5066807;28;20112;-67
2023/12/20 10:34:02;;;;;;;6.60;1.65;;;;;;;18.66;42.48;101508.34;5057525;28;20029;-68
2023/12/20 10:36:29;;;;;;;7.00;1.65;;;;;;;18.60;42.42;101492.13;5053590;28;20123;-69
2023/12/20 10:38:57;;;;;;;4.97;1.60;;;;;;;18.63;42.70;101481.34;5066597;28;20028;-68
2023/12/20 10:41:31;;;;;;;5.07;1.45;;;;;;;18.65;42.65;101495.25;5065833;28;20534;-70
2023/12/20 10:44:01;;;;;;;7.00;1.77;;;;;;;18.69;42.69;101491.41;5057988;28;20045;-69
2023/12/20 10:46:32;;;;;;;5.65;1.73;;;;;;;18.61;42.73;101480.56;5067248;28;20037;-69
2023/12/20 10:48:57;;;;;;;6.03;1.52;;;;;;;18.65;42.75;101495.25;5047274;28;20085;-70
2023/12/20 10:51:25;;;;;;;5.68;1.45;;;;;;;18.63;42.72;101468.97;5047406;28;20061;-68
2023/12/20 10:53:52;;;;;;;5.55;1.73;;;;;;;18.68;42.67;101482.66;5047086;28;20032;-69
2023/12/20 10:56:19;;;;;;;6.28;1.70;;;;;;;18.59;42.58;101464.84;5047295;28;20469;-68
2023/12/20 10:58:49;;;;;;;5.80;1.75;;;;;;;18.69;42.60;101491.41;5047274;28;20475;-69
2023/12/20 11:01:15;;;;;;;5.50;1.63;;;;;;;18.68;42.62;101469.47;5046852;28;20048;-69
2023/12/20 11:03:52;;;;;;;5.63;2.03;;;;;;;18.58;42.41;101457.91;5045526;28;20402;-67
2023/12/20 11:06:38;;;;;;;5.60;1.55;;;;;;;18.69;42.38;101465.00;5045603;28;20061;-69
2023/12/20 11:09:31;;;;;;;5.20;1.52;;;;;;;18.65;42.50;101464.41;5017603;28;20366;-68
2023/12/20 11:12:18;;;;;;;5.28;1.95;;;;;;;18.66;42.43;101457.34;5046819;28;20033;-69
2023/12/20 11:14:50;;;;;;;6.00;1.50;;;;;;;18.58;42.54;101454.41;5047148;28;20044;-69
2023/12/20 11:17:18;;;;;;;5.72;1.73;;;;;;;18.63;42.86;101455.75;5046456;28;20033;-69
2023/12/20 11:19:52;;;;;;;5.35;1.58;;;;;;;18.66;42.81;101462.63;5046777;28;20924;-68